Terminal Aerodrome Forecast
Issued by NWS Charleston, WV

Current Version | Previous Version | Graphics & Text | Print | Product List | Glossary On
Versions: 1 2 3 4 5 6 7 8 9 10 11 12 13 14 15 16 17 18 19 20 21 22 23 24 25 26 27 28 29
000
FTUS41 KRLX 260500
TAFHTS
TAF
KHTS 260537Z 2606/2706 10005KT P6SM SCT070
     FM261100 19006KT P6SM BKN050
     FM261400 21011G18KT P6SM BKN045
     FM261600 23012G22KT P6SM VCTS BKN045CB
     FM261800 28011G20KT 5SM SHRA OVC035
     FM261900 32010G18KT 3SM SHRA OVC020
     FM262200 33009G15KT 6SM -SHRA OVC015
     FM270300 33006KT P6SM BKN025=

USA.gov is the U.S. government's official web portal to all federal, state and local government web resources and services.